createdAt,value
2022-11-01T00:00:58.799Z,100785.40
2022-11-01T00:03:29.488Z,100785.37
2022-11-01T00:06:00.480Z,100785.08
2022-11-01T00:08:32.022Z,100785.64
2022-11-01T00:11:07.135Z,100784.38
2022-11-01T00:13:38.099Z,100785.69
2022-11-01T00:16:09.530Z,100786.52
2022-11-01T00:18:40.173Z,100789.03
2022-11-01T00:21:11.435Z,100787.79
2022-11-01T00:23:42.136Z,100780.16
2022-11-01T00:26:18.172Z,100778.23
2022-11-01T00:28:49.537Z,100775.11
2022-11-01T00:31:21.489Z,100771.67
2022-11-01T00:33:52.128Z,100767.66
2022-11-01T00:36:22.813Z,100766.72
2022-11-01T00:38:54.224Z,100766.48
2022-11-01T00:41:24.877Z,100765.84
2022-11-01T00:43:55.579Z,100767.29
2022-11-01T00:46:26.683Z,100765.43
2022-11-01T00:48:57.302Z,100762.05
2022-11-01T00:51:28.151Z,100758.55
2022-11-01T00:53:58.766Z,100759.46
2022-11-01T00:56:29.434Z,100756.45
2022-11-01T00:59:00.160Z,100755.95
2022-11-01T01:01:32.412Z,100748.89
2022-11-01T01:04:03.351Z,100746.39
2022-11-01T01:06:34.022Z,100747.08
2022-11-01T01:09:04.928Z,100745.45
2022-11-01T01:11:35.680Z,100743.35
2022-11-01T01:14:06.330Z,100743.02
2022-11-01T01:16:37.086Z,100749.64
2022-11-01T01:19:08.577Z,100752.37
2022-11-01T01:21:39.342Z,100746.77
2022-11-01T01:24:10.378Z,100742.06
2022-11-01T01:26:41.014Z,100737.23
2022-11-01T01:29:11.663Z,100736.14
2022-11-01T01:31:42.423Z,100732.45
2022-11-01T01:34:13.233Z,100734.84
2022-11-01T01:36:43.890Z,100727.96
2022-11-01T01:39:14.906Z,100729.28
2022-11-01T01:41:57.722Z,100725.42
2022-11-01T01:45:02.124Z,100721.81
2022-11-01T01:47:34.777Z,100721.51
2022-11-01T01:50:14.035Z,100721.13
2022-11-01T01:52:49.480Z,100717.73
2022-11-01T01:55:25.954Z,100717.21
2022-11-01T01:57:58.479Z,100712.86
2022-11-01T02:00:29.732Z,100719.34
2022-11-01T02:03:00.575Z,100717.40
2022-11-01T02:05:40.249Z,100719.83
2022-11-01T02:08:11.703Z,100715.75
2022-11-01T02:10:43.049Z,100721.06
2022-11-01T02:13:17.448Z,100720.09
2022-11-01T02:15:59.730Z,100718.36
2022-11-01T02:18:40.233Z,100714.51
2022-11-01T02:21:43.614Z,100710.68
2022-11-01T02:24:44.082Z,100708.52
2022-11-01T02:27:22.350Z,100709.58
2022-11-01T02:30:09.408Z,100714.83
2022-11-01T02:32:48.880Z,100704.52
2022-11-01T02:35:27.295Z,100699.60
2022-11-01T02:38:07.459Z,100694.63
2022-11-01T02:40:51.686Z,100688.15
2022-11-01T02:43:28.019Z,100674.64
2022-11-01T02:46:21.888Z,100675.58
2022-11-01T02:48:54.185Z,100671.29
2022-11-01T02:51:27.687Z,100670.88
2022-11-01T02:54:01.696Z,100670.11
2022-11-01T02:56:33.252Z,100667.55
2022-11-01T02:59:04.564Z,100665.21
2022-11-01T03:01:36.824Z,100661.73
2022-11-01T03:04:07.712Z,100661.36
2022-11-01T03:06:44.983Z,100660.59
2022-11-01T03:09:17.046Z,100653.41
2022-11-01T03:11:56.042Z,100648.80
2022-11-01T03:14:33.550Z,100645.96
2022-11-01T03:17:10.306Z,100641.64
2022-11-01T03:19:49.743Z,100648.20
2022-11-01T03:22:27.494Z,100650.83
2022-11-01T03:25:27.879Z,100652.88
2022-11-01T03:28:03.965Z,100659.03
2022-11-01T03:30:36.410Z,100663.05
2022-11-01T03:33:07.641Z,100668.18
2022-11-01T03:35:41.895Z,100672.77
2022-11-01T03:38:16.223Z,100668.61
2022-11-01T03:40:51.536Z,100672.77
2022-11-01T03:43:25.471Z,100676.66
2022-11-01T03:45:57.543Z,100674.95
2022-11-01T03:48:28.457Z,100670.22
2022-11-01T03:50:59.119Z,100660.30
2022-11-01T03:53:29.745Z,100664.66
2022-11-01T03:56:00.494Z,100667.88
2022-11-01T03:58:41.904Z,100665.55
2022-11-01T04:01:14.677Z,100664.77
2022-11-01T04:03:45.769Z,100658.25
2022-11-01T04:06:16.639Z,100652.73
2022-11-01T04:08:47.300Z,100643.38
2022-11-01T04:11:17.910Z,100634.15
2022-11-01T04:13:49.267Z,100630.34
2022-11-01T04:16:37.595Z,100629.17
2022-11-01T04:19:25.418Z,100631.73
2022-11-01T04:21:56.176Z,100631.86
2022-11-01T04:24:26.832Z,100627.92
2022-11-01T04:26:57.478Z,100622.39
2022-11-01T04:29:28.789Z,100625.52
2022-11-01T04:31:59.451Z,100626.69
2022-11-01T04:34:50.294Z,100626.99
2022-11-01T04:37:20.952Z,100615.61
2022-11-01T04:39:51.592Z,100618.19
2022-11-01T04:42:22.260Z,100614.95
2022-11-01T04:44:55.135Z,100614.91
2022-11-01T04:47:25.830Z,100616.54
2022-11-01T04:49:56.565Z,100621.65
2022-11-01T04:52:27.256Z,100616.06
2022-11-01T04:54:57.938Z,100614.28
2022-11-01T04:57:28.581Z,100612.89
2022-11-01T04:59:59.718Z,100613.52
2022-11-01T05:02:31.272Z,100612.09
2022-11-01T05:05:01.910Z,100613.48
2022-11-01T05:07:32.640Z,100611.79
2022-11-01T05:10:03.787Z,100613.02
2022-11-01T05:12:34.728Z,100614.09
2022-11-01T05:15:06.700Z,100609.86
2022-11-01T05:17:41.828Z,100609.31
2022-11-01T05:20:13.938Z,100610.84
2022-11-01T05:22:44.589Z,100606.83
2022-11-01T05:25:15.417Z,100605.52
2022-11-01T05:27:46.259Z,100601.34
2022-11-01T05:30:17.457Z,100603.08
2022-11-01T05:32:48.108Z,100600.50
2022-11-01T05:35:19.044Z,100600.85
2022-11-01T05:37:49.700Z,100595.87
2022-11-01T05:40:20.401Z,100592.35
2022-11-01T05:42:51.853Z,100591.29
2022-11-01T05:45:22.578Z,100590.41
2022-11-01T05:47:53.389Z,100593.11
2022-11-01T05:50:24.066Z,100595.08
2022-11-01T05:52:54.800Z,100596.25
2022-11-01T05:55:25.436Z,100600.31
2022-11-01T05:58:01.658Z,100602.05
2022-11-01T06:00:32.437Z,100603.27
2022-11-01T06:03:03.671Z,100598.23
2022-11-01T06:05:35.536Z,100592.88
2022-11-01T06:08:07.021Z,100594.45
2022-11-01T06:10:37.652Z,100593.81
2022-11-01T06:13:08.368Z,100598.77
2022-11-01T06:15:39.831Z,100596.08
2022-11-01T06:18:10.966Z,100603.36
2022-11-01T06:20:41.591Z,100600.86
2022-11-01T06:23:13.157Z,100595.48
2022-11-01T06:25:43.937Z,100595.25
2022-11-01T06:28:14.603Z,100593.92
2022-11-01T06:30:45.362Z,100596.63
2022-11-01T06:33:16.054Z,100595.63
2022-11-01T06:35:46.696Z,100594.33
2022-11-01T06:38:17.369Z,100597.04
2022-11-01T06:40:48.947Z,100599.67
2022-11-01T06:43:19.968Z,100603.45
2022-11-01T06:45:50.705Z,100596.21
2022-11-01T06:48:21.440Z,100591.06
2022-11-01T06:50:53.925Z,100586.14
2022-11-01T06:53:24.806Z,100585.91
2022-11-01T06:55:55.484Z,100586.59
2022-11-01T06:58:26.227Z,100589.27
2022-11-01T07:00:56.920Z,100595.80
2022-11-01T07:03:27.746Z,100597.98
2022-11-01T07:06:00.591Z,100601.36
2022-11-01T07:08:31.631Z,100598.80
2022-11-01T07:11:02.365Z,100598.06
2022-11-01T07:13:34.039Z,100603.30
2022-11-01T07:16:05.323Z,100606.58
2022-11-01T07:18:35.964Z,100605.55
2022-11-01T07:21:07.440Z,100608.06
2022-11-01T07:23:38.197Z,100604.95
2022-11-01T07:26:09.029Z,100605.35
2022-11-01T07:28:39.980Z,100608.48
2022-11-01T07:31:10.662Z,100611.70
2022-11-01T07:33:41.454Z,100610.77
2022-11-01T07:36:12.732Z,100607.83
2022-11-01T07:38:43.545Z,100607.03
2022-11-01T07:41:14.216Z,100608.33
2022-11-01T07:43:45.094Z,100606.89
2022-11-01T07:46:15.849Z,100606.45
2022-11-01T07:48:46.556Z,100601.20
2022-11-01T07:51:17.211Z,100602.73
2022-11-01T07:53:47.977Z,100602.31
2022-11-01T07:56:19.051Z,100604.89
2022-11-01T07:58:49.846Z,100600.61
2022-11-01T08:01:20.632Z,100597.69
2022-11-01T08:03:52.139Z,100595.89
2022-11-01T08:08:58.703Z,100606.38
2022-11-01T08:11:30.596Z,100605.21
2022-11-01T08:14:04.357Z,100606.11
2022-11-01T08:16:36.862Z,100612.64
2022-11-01T08:19:07.515Z,100616.30
2022-11-01T08:21:38.189Z,100615.20
2022-11-01T08:24:09.446Z,100612.71
2022-11-01T08:26:40.092Z,100601.99
2022-11-01T08:29:10.913Z,100597.09
2022-11-01T08:31:43.463Z,100592.60
2022-11-01T08:34:17.020Z,100597.13
2022-11-01T08:36:47.976Z,100603.73
2022-11-01T08:39:19.065Z,100603.92
2022-11-01T08:41:51.862Z,100603.59
2022-11-01T08:44:22.846Z,100597.48
2022-11-01T08:46:56.763Z,100592.79
2022-11-01T08:49:27.696Z,100593.14
2022-11-01T08:51:58.636Z,100590.30
2022-11-01T08:54:29.371Z,100590.58
2022-11-01T08:57:00.135Z,100585.27
2022-11-01T08:59:30.837Z,100578.47
2022-11-01T09:02:01.609Z,100578.55
2022-11-01T09:04:32.480Z,100576.23
2022-11-01T09:07:03.157Z,100572.27
2022-11-01T09:09:33.895Z,100571.43
2022-11-01T09:12:09.671Z,100572.82
2022-11-01T09:14:42.990Z,100570.50
2022-11-01T09:17:13.674Z,100571.13
2022-11-01T09:19:44.941Z,100571.07
2022-11-01T09:22:15.650Z,100572.06
2022-11-01T09:24:46.547Z,100574.55
2022-11-01T09:27:17.649Z,100568.45
2022-11-01T09:29:51.074Z,100565.58
2022-11-01T09:32:22.920Z,100566.77
2022-11-01T09:34:53.741Z,100564.52
2022-11-01T09:37:24.368Z,100560.95
2022-11-01T09:39:55.107Z,100560.36
2022-11-01T09:42:32.593Z,100555.58
2022-11-01T09:45:08.274Z,100551.86
2022-11-01T09:47:39.772Z,100550.08
2022-11-01T09:50:22.399Z,100549.93
2022-11-01T09:52:55.078Z,100547.86
2022-11-01T09:55:40.361Z,100551.79
2022-11-01T09:58:20.618Z,100554.95
2022-11-01T10:01:01.759Z,100554.65
2022-11-01T10:03:50.846Z,100549.66
2022-11-01T10:06:26.468Z,100543.79
2022-11-01T10:09:08.708Z,100541.46
2022-11-01T10:11:54.779Z,100543.83
2022-11-01T10:14:38.871Z,100546.51
2022-11-01T10:17:15.512Z,100541.88
2022-11-01T10:19:49.785Z,100546.55
2022-11-01T10:22:25.937Z,100546.03
2022-11-01T10:25:03.158Z,100540.41
2022-11-01T10:27:42.016Z,100537.95
2022-11-01T10:30:16.670Z,100537.33
2022-11-01T10:32:52.602Z,100534.08
2022-11-01T10:35:26.330Z,100530.42
2022-11-01T10:38:22.846Z,100528.95
2022-11-01T10:40:57.598Z,100525.79
2022-11-01T10:43:28.898Z,100524.04
2022-11-01T10:46:01.962Z,100518.55
2022-11-01T10:48:36.996Z,100517.39
2022-11-01T10:51:10.811Z,100517.35
2022-11-01T10:53:47.498Z,100515.69
2022-11-01T10:56:24.114Z,100512.20
2022-11-01T10:59:02.301Z,100509.15
2022-11-01T11:01:42.781Z,100504.44
2022-11-01T11:04:17.847Z,100502.56
2022-11-01T11:06:48.689Z,100496.10
2022-11-01T11:09:25.843Z,100487.76
2022-11-01T11:11:59.448Z,100484.27
2022-11-01T11:14:33.069Z,100482.66
2022-11-01T11:17:05.078Z,100481.50
2022-11-01T11:19:38.883Z,100482.87
2022-11-01T11:22:12.657Z,100481.73
2022-11-01T11:24:44.955Z,100472.98
2022-11-01T11:27:23.366Z,100472.27
2022-11-01T11:29:57.123Z,100472.02
2022-11-01T11:32:31.751Z,100471.17
2022-11-01T11:35:05.353Z,100463.75
2022-11-01T11:37:39.749Z,100462.19
2022-11-01T11:40:20.282Z,100466.05
2022-11-01T11:42:52.413Z,100465.90
2022-11-01T11:45:27.388Z,100471.25
2022-11-01T11:48:15.257Z,100473.35
2022-11-01T11:50:46.510Z,100476.48
2022-11-01T11:53:22.968Z,100473.18
2022-11-01T11:55:57.858Z,100472.22
2022-11-01T11:58:34.806Z,100471.33
2022-11-01T12:01:08.273Z,100467.95
2022-11-01T12:03:48.429Z,100469.98
2022-11-01T12:06:23.827Z,100467.86
2022-11-01T12:08:56.149Z,100463.34
2022-11-01T12:11:38.661Z,100454.02
2022-11-01T12:14:23.249Z,100447.55
2022-11-01T12:16:53.911Z,100451.58
2022-11-01T12:19:29.520Z,100449.86
2022-11-01T12:22:02.580Z,100445.75
2022-11-01T12:24:41.704Z,100445.84
2022-11-01T12:27:26.052Z,100448.75
2022-11-01T12:30:00.983Z,100448.33
2022-11-01T12:32:38.979Z,100450.40
2022-11-01T12:35:17.786Z,100451.71
2022-11-01T12:37:57.963Z,100453.56
2022-11-01T12:40:33.685Z,100450.55
2022-11-01T12:43:13.443Z,100452.36
2022-11-01T12:45:51.198Z,100452.77
2022-11-01T12:48:28.204Z,100444.38
2022-11-01T12:51:03.453Z,100443.00
2022-11-01T12:53:40.793Z,100443.01
2022-11-01T12:56:12.237Z,100441.19
2022-11-01T12:58:43.062Z,100447.89
2022-11-01T13:01:28.255Z,100456.08
2022-11-01T13:04:12.229Z,100463.88
2022-11-01T13:07:01.698Z,100470.23
2022-11-01T13:09:43.258Z,100477.84
2022-11-01T13:12:20.683Z,100473.33
2022-11-01T13:15:01.850Z,100469.38
2022-11-01T13:17:39.824Z,100472.95
2022-11-01T13:20:28.136Z,100475.80
2022-11-01T13:23:09.964Z,100476.56
2022-11-01T13:25:49.085Z,100475.77
2022-11-01T13:28:28.305Z,100474.14
2022-11-01T13:31:03.748Z,100476.23
2022-11-01T13:33:41.907Z,100482.30
2022-11-01T13:36:19.489Z,100480.21
2022-11-01T13:38:59.738Z,100487.34
2022-11-01T13:41:38.084Z,100485.70
2022-11-01T13:44:12.593Z,100478.30
2022-11-01T13:47:03.871Z,100473.83
2022-11-01T13:50:19.427Z,100475.59
2022-11-01T13:52:55.902Z,100480.10
2022-11-01T13:55:34.830Z,100480.05
2022-11-01T13:58:08.206Z,100478.83
2022-11-01T14:00:42.218Z,100481.41
2022-11-01T14:03:29.546Z,100491.67
2022-11-01T14:06:36.606Z,100493.81
2022-11-01T14:09:31.790Z,100499.16
2022-11-01T14:12:30.285Z,100504.70
2022-11-01T14:15:16.342Z,100510.36
2022-11-01T14:18:07.864Z,100515.95
2022-11-01T14:20:50.653Z,100514.61
2022-11-01T14:23:54.201Z,100516.34
2022-11-01T14:26:50.171Z,100520.13
2022-11-01T14:29:20.912Z,100524.96
2022-11-01T14:31:54.849Z,100522.95
2022-11-01T14:34:39.586Z,100524.88
2022-11-01T14:37:25.855Z,100519.11
2022-11-01T14:40:04.980Z,100521.64
2022-11-01T14:42:46.038Z,100526.35
2022-11-01T14:45:30.165Z,100524.66
2022-11-01T14:48:07.292Z,100523.27
2022-11-01T14:50:47.429Z,100532.77
2022-11-01T14:53:26.458Z,100540.36
2022-11-01T14:56:14.473Z,100532.89
2022-11-01T14:58:45.623Z,100531.55
2022-11-01T15:01:18.711Z,100537.35
2022-11-01T15:03:58.673Z,100534.14
2022-11-01T15:06:31.574Z,100538.52
2022-11-01T15:09:04.208Z,100547.16
2022-11-01T15:11:37.446Z,100543.48
2022-11-01T15:14:10.191Z,100535.68
2022-11-01T15:16:44.820Z,100534.54
2022-11-01T15:19:22.980Z,100539.90
2022-11-01T15:21:53.794Z,100540.48
2022-11-01T15:24:27.111Z,100537.28
2022-11-01T15:26:57.811Z,100535.45
2022-11-01T15:29:28.664Z,100531.84
2022-11-01T15:32:01.986Z,100531.61
2022-11-01T15:34:36.594Z,100533.87
2022-11-01T15:37:22.514Z,100532.63
2022-11-01T15:39:53.562Z,100536.76
2022-11-01T15:42:31.219Z,100540.60
2022-11-01T15:45:23.037Z,100543.02
2022-11-01T15:47:53.975Z,100549.65
2022-11-01T15:50:24.901Z,100556.48
2022-11-01T15:52:56.408Z,100560.73
2022-11-01T15:55:30.284Z,100558.20
2022-11-01T15:58:07.127Z,100562.45
2022-11-01T16:00:43.019Z,100562.94
2022-11-01T16:03:17.852Z,100562.35
2022-11-01T16:05:56.693Z,100558.00
2022-11-01T16:08:33.627Z,100551.80
2022-11-01T16:11:04.959Z,100544.59
2022-11-01T16:13:35.963Z,100538.58
2022-11-01T16:16:10.331Z,100536.45
2022-11-01T16:18:45.185Z,100537.85
2022-11-01T16:21:31.216Z,100545.15
2022-11-01T16:24:10.992Z,100558.14
2022-11-01T16:26:56.077Z,100553.97
2022-11-01T16:29:44.303Z,100541.70
2022-11-01T16:32:23.931Z,100548.67
2022-11-01T16:34:55.421Z,100557.66
2022-11-01T16:37:28.034Z,100556.63
2022-11-01T16:39:59.166Z,100555.59
2022-11-01T16:42:30.365Z,100555.88
2022-11-01T16:45:01.096Z,100554.75
2022-11-01T16:47:31.984Z,100550.58
2022-11-01T16:50:03.043Z,100546.31
2022-11-01T16:52:35.356Z,100539.65
2022-11-01T16:55:06.641Z,100530.68
2022-11-01T16:57:37.434Z,100531.89
2022-11-01T17:00:14.642Z,100536.70
2022-11-01T17:02:45.334Z,100536.21
2022-11-01T17:05:23.626Z,100537.10
2022-11-01T17:07:54.916Z,100535.57
2022-11-01T17:10:27.372Z,100540.76
2022-11-01T17:13:02.539Z,100546.17
2022-11-01T17:15:36.390Z,100544.55
2022-11-01T17:18:12.594Z,100537.44
2022-11-01T17:20:44.695Z,100537.89
2022-11-01T17:23:18.749Z,100537.05
2022-11-01T17:25:52.495Z,100530.91
2022-11-01T17:28:24.553Z,100526.76
2022-11-01T17:30:55.794Z,100521.33
2022-11-01T17:33:26.487Z,100524.70
2022-11-01T17:35:57.445Z,100531.20
2022-11-01T17:38:32.121Z,100534.70
2022-11-01T17:41:04.163Z,100538.17
2022-11-01T17:43:34.805Z,100544.04
2022-11-01T17:46:11.776Z,100546.66
2022-11-01T17:48:42.544Z,100539.48
2022-11-01T17:51:13.327Z,100545.69
2022-11-01T17:53:44.088Z,100549.61
2022-11-01T17:56:14.704Z,100544.84
2022-11-01T17:58:51.123Z,100550.63
2022-11-01T18:01:23.263Z,100554.00
2022-11-01T18:03:54.506Z,100536.89
2022-11-01T18:06:26.472Z,100540.73
2022-11-01T18:08:57.511Z,100538.55
2022-11-01T18:11:39.362Z,100538.52
2022-11-01T18:14:16.052Z,100542.05
2022-11-01T18:16:51.989Z,100540.41
2022-11-01T18:19:41.392Z,100543.77
2022-11-01T18:22:22.224Z,100542.30
2022-11-01T18:24:58.746Z,100542.05
2022-11-01T18:27:34.763Z,100546.31
2022-11-01T18:30:13.970Z,100545.41
2022-11-01T18:32:51.800Z,100549.04
2022-11-01T18:35:32.594Z,100557.08
2022-11-01T18:38:16.941Z,100570.97
2022-11-01T18:40:57.047Z,100569.81
2022-11-01T18:43:31.813Z,100569.19
2022-11-01T18:46:24.613Z,100572.97
2022-11-01T18:49:00.837Z,100571.92
2022-11-01T18:51:33.543Z,100572.47
2022-11-01T18:54:25.993Z,100565.23
2022-11-01T18:56:59.854Z,100559.77
2022-11-01T18:59:34.138Z,100562.96
2022-11-01T19:02:13.695Z,100560.25
2022-11-01T19:04:46.651Z,100565.34
2022-11-01T19:07:20.175Z,100567.45
2022-11-01T19:09:55.914Z,100558.33
2022-11-01T19:12:32.382Z,100558.85
2022-11-01T19:15:15.066Z,100557.50
2022-11-01T19:17:47.980Z,100556.05
2022-11-01T19:20:25.229Z,100552.98
2022-11-01T19:22:58.879Z,100552.42
2022-11-01T19:25:32.570Z,100553.05
2022-11-01T19:28:07.765Z,100551.45
2022-11-01T19:30:38.867Z,100551.39
2022-11-01T19:33:23.354Z,100553.67
2022-11-01T19:35:57.170Z,100560.01
2022-11-01T19:38:27.861Z,100558.39
2022-11-01T19:40:58.865Z,100563.55
2022-11-01T19:43:30.444Z,100567.32
2022-11-01T19:46:01.494Z,100563.73
2022-11-01T19:48:33.145Z,100560.46
2022-11-01T19:51:03.882Z,100566.20
2022-11-01T19:53:40.258Z,100562.77
2022-11-01T19:56:14.181Z,100566.05
2022-11-01T19:58:47.222Z,100566.11
2022-11-01T20:01:40.844Z,100562.70
2022-11-01T20:04:17.690Z,100562.60
2022-11-01T20:06:56.091Z,100565.47
2022-11-01T20:09:28.829Z,100565.73
2022-11-01T20:12:00.732Z,100562.68
2022-11-01T20:14:33.434Z,100563.89
2022-11-01T20:17:04.412Z,100560.90
2022-11-01T20:19:35.092Z,100562.16
2022-11-01T20:22:05.829Z,100556.31
2022-11-01T20:24:36.651Z,100555.30
2022-11-01T20:27:07.402Z,100560.94
2022-11-01T20:29:38.139Z,100558.58
2022-11-01T20:32:09.182Z,100560.13
2022-11-01T20:34:40.151Z,100556.75
2022-11-01T20:40:03.598Z,100564.95
2022-11-01T20:42:34.334Z,100565.05
2022-11-01T20:45:05.506Z,100559.77
2022-11-01T20:47:36.326Z,100559.98
2022-11-01T20:50:09.446Z,100560.58
2022-11-01T20:52:40.493Z,100556.37
2022-11-01T20:55:12.985Z,100557.95
2022-11-01T20:57:43.868Z,100557.96
2022-11-01T21:00:18.440Z,100562.86
2022-11-01T21:02:50.414Z,100561.73
2022-11-01T21:05:24.969Z,100556.27
2022-11-01T21:08:01.577Z,100552.27
2022-11-01T21:10:35.274Z,100552.49
2022-11-01T21:13:21.392Z,100555.77
2022-11-01T21:15:53.512Z,100552.78
2022-11-01T21:18:44.159Z,100557.34
2022-11-01T21:21:35.575Z,100559.26
2022-11-01T21:24:27.821Z,100559.69
2022-11-01T21:27:09.053Z,100560.13
2022-11-01T21:29:42.820Z,100563.02
2022-11-01T21:32:27.090Z,100565.11
2022-11-01T21:34:58.595Z,100564.73
2022-11-01T21:37:31.123Z,100559.64
2022-11-01T21:40:14.638Z,100558.05
2022-11-01T21:42:47.458Z,100560.15
2022-11-01T21:45:30.776Z,100556.41
2022-11-01T21:48:09.546Z,100558.45
2022-11-01T21:50:40.162Z,100556.07
2022-11-01T21:53:10.817Z,100557.65
2022-11-01T21:55:41.465Z,100557.71
2022-11-01T21:58:12.088Z,100556.83
2022-11-01T22:00:42.727Z,100559.66
2022-11-01T22:03:13.339Z,100561.66
2022-11-01T22:05:43.986Z,100566.60
2022-11-01T22:08:14.670Z,100561.93
2022-11-01T22:10:45.334Z,100564.77
2022-11-01T22:13:16.116Z,100561.92
2022-11-01T22:15:46.933Z,100565.64
2022-11-01T22:18:22.407Z,100562.75
2022-11-01T22:20:55.568Z,100564.95
2022-11-01T22:23:26.362Z,100565.85
2022-11-01T22:25:57.040Z,100564.76
2022-11-01T22:28:28.297Z,100566.78
2022-11-01T22:30:59.029Z,100570.88
2022-11-01T22:33:30.131Z,100567.30
2022-11-01T22:36:00.909Z,100567.84
2022-11-01T22:38:35.903Z,100567.23
2022-11-01T22:41:13.573Z,100562.00
2022-11-01T22:43:47.315Z,100565.67
2022-11-01T22:46:26.667Z,100564.67
2022-11-01T22:49:02.528Z,100566.45
2022-11-01T22:51:40.277Z,100562.00
2022-11-01T22:54:25.728Z,100563.61
2022-11-01T22:57:01.526Z,100572.30
2022-11-01T22:59:35.741Z,100572.89
2022-11-01T23:02:27.994Z,100569.36
2022-11-01T23:05:03.843Z,100576.29
2022-11-01T23:07:37.183Z,100570.31
2022-11-01T23:10:22.511Z,100569.13
2022-11-01T23:13:14.334Z,100567.40
2022-11-01T23:15:45.986Z,100570.68
2022-11-01T23:18:20.504Z,100576.75
2022-11-01T23:20:57.359Z,100578.35
2022-11-01T23:23:28.207Z,100584.35
2022-11-01T23:26:03.263Z,100585.61
2022-11-01T23:28:35.320Z,100590.65
2022-11-01T23:31:06.964Z,100588.35
2022-11-01T23:33:40.936Z,100589.63
2022-11-01T23:36:19.567Z,100588.80
2022-11-01T23:38:53.566Z,100590.50
2022-11-01T23:41:27.187Z,100591.59
2022-11-01T23:44:01.318Z,100592.21
2022-11-01T23:46:32.005Z,100591.25
2022-11-01T23:49:13.142Z,100593.53
2022-11-01T23:51:44.185Z,100591.67
2022-11-01T23:54:21.069Z,100596.23
2022-11-01T23:56:51.900Z,100592.02
2022-11-01T23:59:22.636Z,100596.34
